Time;durP1;ratioP1;P1;durP2;ratioP2;P2;SDS_P1;SDS_P2;PMS_P1;PMS_P2;Temp;Humidity;BMP_temperature;BMP_pressure;BME280_temperature;BME280_humidity;BME280_pressure;Samples;Min_cycle;Max_cycle;Signal;HPM_P1;HPM_P2
2021/06/27 00:01:44;;;;;;;9.55;1.98;;;;;;;;;;4388886;32;20295;-54
2021/06/27 00:04:13;;;;;;;6.50;2.08;;;;;;;;;;4388918;32;20227;-56
2021/06/27 00:06:39;;;;;;;6.65;1.98;;;;;;;;;;4388660;32;20323;-57
2021/06/27 00:09:05;;;;;;;4.10;1.45;;;;;;;;;;4388901;32;20211;-56
2021/06/27 00:11:30;;;;;;;11.52;2.00;;;;;;;;;;4388652;32;20281;-57
2021/06/27 00:13:56;;;;;;;5.68;2.05;;;;;;;;;;4375034;32;20290;-58
2021/06/27 00:16:22;;;;;;;6.62;2.70;;;;;;;;;;4388649;32;20644;-58
2021/06/27 00:18:48;;;;;;;6.95;2.58;;;;;;;;;;4388054;32;20343;-57
2021/06/27 00:21:14;;;;;;;6.18;2.30;;;;;;;;;;4388745;32;20325;-58
2021/06/27 00:23:43;;;;;;;7.60;2.25;;;;;;;;;;4388630;32;20218;-58
2021/06/27 00:26:10;;;;;;;11.40;2.47;;;;;;;;;;4388525;32;20323;-58
2021/06/27 00:28:36;;;;;;;4.00;1.98;;;;;;;;;;4388559;32;20301;-58
2021/06/27 00:31:03;;;;;;;8.00;2.33;;;;;;;;;;4388963;32;20307;-58
2021/06/27 00:33:29;;;;;;;8.52;1.80;;;;;;;;;;4388581;32;20358;-57
2021/06/27 00:35:55;;;;;;;12.10;1.95;;;;;;;;;;4388632;32;20765;-57
2021/06/27 00:38:23;;;;;;;12.10;4.37;;;;;;;;;;4387688;32;20218;-57
2021/06/27 00:40:49;;;;;;;9.52;4.22;;;;;;;;;;4388412;32;20209;-57
2021/06/27 00:43:14;;;;;;;6.35;1.85;;;;;;;;;;4388244;32;20217;-57
2021/06/27 00:45:40;;;;;;;7.05;1.98;;;;;;;;;;4387815;32;20269;-56
2021/06/27 00:48:06;;;;;;;8.50;2.37;;;;;;;;;;4388450;32;20222;-56
2021/06/27 00:50:44;;;;;;;14.15;2.65;;;;;;;;;;4388366;32;20371;-56
2021/06/27 00:53:11;;;;;;;4.35;1.83;;;;;;;;;;4387819;32;20252;-56
2021/06/27 00:55:37;;;;;;;6.95;2.08;;;;;;;;;;4388249;32;20350;-56
2021/06/27 00:58:04;;;;;;;9.13;1.35;;;;;;;;;;4388201;32;20271;-55
2021/06/27 01:00:36;;;;;;;5.95;1.80;;;;;;;;;;4386790;32;20523;-56
2021/06/27 01:03:02;;;;;;;5.93;2.03;;;;;;;;;;4388378;32;20217;-56
2021/06/27 01:05:30;;;;;;;6.57;1.58;;;;;;;;;;4388220;32;20303;-57
2021/06/27 01:07:56;;;;;;;4.47;1.70;;;;;;;;;;4374458;32;20226;-56
2021/06/27 01:10:23;;;;;;;9.95;2.20;;;;;;;;;;4387317;32;20632;-55
2021/06/27 01:12:49;;;;;;;6.68;1.40;;;;;;;;;;4388032;32;20340;-55
2021/06/27 01:15:15;;;;;;;5.18;1.98;;;;;;;;;;4388043;32;20296;-57
2021/06/27 01:17:44;;;;;;;6.43;2.08;;;;;;;;;;4387955;32;20613;-57
2021/06/27 01:20:15;;;;;;;8.15;2.47;;;;;;;;;;4387834;32;20236;-56
2021/06/27 01:22:41;;;;;;;5.75;1.80;;;;;;;;;;4387937;32;20259;-55
2021/06/27 01:25:08;;;;;;;9.23;1.75;;;;;;;;;;4387929;32;20280;-56
2021/06/27 01:27:34;;;;;;;12.80;3.15;;;;;;;;;;4387810;32;20223;-55
2021/06/27 01:30:00;;;;;;;9.50;3.65;;;;;;;;;;4387645;32;20243;-56
2021/06/27 01:32:26;;;;;;;10.07;2.72;;;;;;;;;;4388074;32;20209;-55
2021/06/27 01:34:51;;;;;;;5.82;3.05;;;;;;;;;;4387333;32;20225;-56
2021/06/27 01:37:17;;;;;;;12.70;4.20;;;;;;;;;;4387812;32;20214;-55
2021/06/27 01:39:43;;;;;;;9.73;4.18;;;;;;;;;;4388052;32;20261;-57
2021/06/27 01:42:09;;;;;;;7.37;3.40;;;;;;;;;;4387765;32;20309;-56
2021/06/27 01:44:35;;;;;;;6.75;2.40;;;;;;;;;;4387669;32;20214;-56
2021/06/27 01:47:01;;;;;;;3.97;1.90;;;;;;;;;;4387507;32;20210;-56
2021/06/27 01:49:26;;;;;;;6.50;2.37;;;;;;;;;;4387819;32;20263;-56
2021/06/27 01:51:53;;;;;;;6.55;1.87;;;;;;;;;;4387890;32;20225;-57
2021/06/27 01:54:18;;;;;;;7.45;1.85;;;;;;;;;;4387850;32;20362;-57
2021/06/27 01:56:44;;;;;;;7.37;2.33;;;;;;;;;;4389050;32;20266;-56
2021/06/27 01:59:10;;;;;;;6.80;1.70;;;;;;;;;;4390598;32;20210;-56
2021/06/27 02:01:37;;;;;;;10.20;1.85;;;;;;;;;;4390558;32;20299;-56
2021/06/27 02:04:04;;;;;;;7.28;1.92;;;;;;;;;;4390602;32;20253;-55
2021/06/27 02:06:33;;;;;;;7.55;2.55;;;;;;;;;;4390200;32;20202;-56
2021/06/27 02:08:59;;;;;;;9.63;4.82;;;;;;;;;;4390440;32;20672;-55
2021/06/27 02:11:26;;;;;;;21.27;13.23;;;;;;;;;;4390276;32;20264;-56
2021/06/27 02:13:52;;;;;;;37.25;14.45;;;;;;;;;;4390137;32;20218;-55
2021/06/27 02:16:17;;;;;;;23.62;10.02;;;;;;;;;;4390261;32;20277;-55
2021/06/27 02:18:48;;;;;;;11.45;6.25;;;;;;;;;;4390333;32;20353;-55
2021/06/27 02:21:17;;;;;;;10.77;3.10;;;;;;;;;;4390532;32;20656;-54
2021/06/27 02:23:43;;;;;;;8.07;2.87;;;;;;;;;;4389037;32;20551;-55
2021/06/27 02:26:08;;;;;;;9.32;3.72;;;;;;;;;;4389922;32;20781;-56
2021/06/27 02:28:35;;;;;;;11.07;4.05;;;;;;;;;;4389807;32;20250;-54
2021/06/27 02:31:01;;;;;;;16.27;5.03;;;;;;;;;;4389892;32;20291;-56
2021/06/27 02:33:27;;;;;;;8.48;4.00;;;;;;;;;;4389651;32;20264;-56
2021/06/27 02:35:54;;;;;;;10.23;2.60;;;;;;;;;;4390175;32;20721;-55
2021/06/27 02:38:19;;;;;;;6.20;2.30;;;;;;;;;;4389821;32;20407;-55
2021/06/27 02:40:45;;;;;;;6.07;2.28;;;;;;;;;;4390146;32;20709;-57
2021/06/27 02:43:11;;;;;;;11.80;2.35;;;;;;;;;;4389963;32;20271;-55
2021/06/27 02:45:38;;;;;;;7.50;2.58;;;;;;;;;;4389558;32;20273;-55
2021/06/27 02:48:05;;;;;;;11.50;2.60;;;;;;;;;;4389918;32;20297;-54
2021/06/27 02:50:31;;;;;;;9.25;3.35;;;;;;;;;;4389491;32;20257;-54
2021/06/27 02:52:56;;;;;;;5.68;2.22;;;;;;;;;;4389844;32;20721;-54
2021/06/27 02:55:23;;;;;;;11.88;2.80;;;;;;;;;;4389565;32;20269;-55
2021/06/27 02:57:51;;;;;;;16.40;3.00;;;;;;;;;;4389563;32;20405;-54
2021/06/27 03:00:18;;;;;;;6.15;3.22;;;;;;;;;;4389148;32;20240;-54
2021/06/27 03:02:44;;;;;;;8.73;2.42;;;;;;;;;;4389333;32;20358;-55
2021/06/27 03:05:10;;;;;;;6.78;2.20;;;;;;;;;;4389517;32;20294;-56
2021/06/27 03:07:36;;;;;;;11.18;2.75;;;;;;;;;;4388836;32;20214;-55
2021/06/27 03:10:05;;;;;;;8.75;3.67;;;;;;;;;;4389025;32;20631;-55
2021/06/27 03:12:30;;;;;;;6.78;2.87;;;;;;;;;;4389359;32;20275;-55
2021/06/27 03:14:56;;;;;;;8.60;3.28;;;;;;;;;;4389212;32;20281;-56
2021/06/27 03:17:21;;;;;;;5.45;2.45;;;;;;;;;;4389221;32;20218;-56
2021/06/27 03:19:47;;;;;;;7.25;2.92;;;;;;;;;;4389124;32;20524;-55
2021/06/27 03:22:12;;;;;;;9.60;2.83;;;;;;;;;;4389210;32;20206;-56
2021/06/27 03:24:38;;;;;;;16.55;2.65;;;;;;;;;;4389269;32;20315;-54
2021/06/27 03:27:03;;;;;;;6.18;2.78;;;;;;;;;;4389122;32;20339;-54
2021/06/27 03:29:29;;;;;;;5.85;2.70;;;;;;;;;;4389205;32;20371;-54
2021/06/27 03:31:54;;;;;;;8.88;3.10;;;;;;;;;;4389400;32;20233;-54
2021/06/27 03:34:21;;;;;;;8.80;3.12;;;;;;;;;;4389383;32;20248;-55
2021/06/27 03:36:46;;;;;;;12.73;3.05;;;;;;;;;;4388374;32;20205;-54
2021/06/27 03:39:14;;;;;;;6.90;2.72;;;;;;;;;;4389365;32;20236;-55
2021/06/27 03:41:46;;;;;;;13.73;3.65;;;;;;;;;;4389180;32;20211;-54
2021/06/27 03:44:12;;;;;;;11.82;2.92;;;;;;;;;;4389382;32;20241;-54
2021/06/27 03:46:38;;;;;;;8.48;3.00;;;;;;;;;;4388992;32;20288;-55
2021/06/27 03:49:04;;;;;;;14.20;3.47;;;;;;;;;;4389173;32;20311;-55
2021/06/27 03:51:30;;;;;;;7.25;3.58;;;;;;;;;;4387977;32;20209;-57
2021/06/27 03:53:56;;;;;;;6.70;3.12;;;;;;;;;;4388974;32;20700;-56
2021/06/27 03:56:22;;;;;;;7.55;3.42;;;;;;;;;;4389150;32;20269;-56
2021/06/27 03:58:48;;;;;;;10.45;3.47;;;;;;;;;;4388898;32;20218;-56
2021/06/27 04:01:14;;;;;;;11.48;3.67;;;;;;;;;;4388693;32;20328;-56
2021/06/27 04:03:40;;;;;;;10.63;3.95;;;;;;;;;;4388417;32;20616;-57
2021/06/27 04:06:06;;;;;;;8.63;3.37;;;;;;;;;;4375298;32;20266;-57
2021/06/27 04:08:32;;;;;;;10.27;4.40;;;;;;;;;;4388383;32;20303;-56
2021/06/27 04:10:58;;;;;;;5.93;3.42;;;;;;;;;;4388575;32;20602;-56
2021/06/27 04:13:32;;;;;;;9.82;3.17;;;;;;;;;;4388521;32;20313;-56
2021/06/27 04:15:58;;;;;;;8.23;3.53;;;;;;;;;;4388637;32;20362;-57
2021/06/27 04:18:25;;;;;;;7.50;3.53;;;;;;;;;;4388318;32;20300;-57
2021/06/27 04:20:51;;;;;;;11.95;3.53;;;;;;;;;;4388713;32;20269;-58
2021/06/27 04:23:17;;;;;;;4.95;3.22;;;;;;;;;;4388478;32;20631;-57
2021/06/27 04:25:43;;;;;;;9.27;3.15;;;;;;;;;;4388267;32;20291;-55
2021/06/27 04:28:09;;;;;;;14.68;3.42;;;;;;;;;;4388279;32;20297;-56
2021/06/27 04:30:38;;;;;;;7.90;3.33;;;;;;;;;;4388025;32;20323;-56
2021/06/27 04:33:06;;;;;;;6.05;3.22;;;;;;;;;;4387764;32;20808;-58
2021/06/27 04:35:34;;;;;;;6.55;3.67;;;;;;;;;;4387933;32;20194;-57
2021/06/27 04:38:00;;;;;;;5.72;3.50;;;;;;;;;;4388088;32;20206;-56
2021/06/27 04:40:26;;;;;;;8.38;3.45;;;;;;;;;;4387458;32;20723;-55
2021/06/27 04:42:51;;;;;;;8.57;4.00;;;;;;;;;;4388000;32;20438;-55
2021/06/27 04:45:17;;;;;;;7.72;2.72;;;;;;;;;;4387972;32;20721;-56
2021/06/27 04:47:43;;;;;;;8.88;3.72;;;;;;;;;;4387173;32;20296;-56
2021/06/27 04:50:09;;;;;;;4.60;3.30;;;;;;;;;;4388185;32;20355;-56
2021/06/27 04:52:35;;;;;;;8.73;3.85;;;;;;;;;;4387974;32;20628;-56
2021/06/27 04:55:04;;;;;;;5.53;3.15;;;;;;;;;;4388198;32;20371;-57
2021/06/27 04:57:31;;;;;;;7.40;2.92;;;;;;;;;;4388071;32;20669;-56
2021/06/27 04:59:57;;;;;;;6.82;3.42;;;;;;;;;;4388137;32;20202;-56
2021/06/27 05:02:22;;;;;;;5.30;2.62;;;;;;;;;;4387487;32;20676;-56
2021/06/27 05:04:48;;;;;;;10.95;3.58;;;;;;;;;;4386913;32;20739;-56
2021/06/27 05:07:13;;;;;;;8.45;3.05;;;;;;;;;;4386747;32;20340;-56
2021/06/27 05:09:39;;;;;;;11.70;3.15;;;;;;;;;;4386038;32;20780;-55
2021/06/27 05:12:05;;;;;;;5.93;2.55;;;;;;;;;;4386322;32;20230;-56
2021/06/27 05:14:31;;;;;;;7.25;3.17;;;;;;;;;;4386023;32;20226;-56
2021/06/27 05:16:56;;;;;;;10.25;4.15;;;;;;;;;;4385903;32;20268;-54
2021/06/27 05:19:22;;;;;;;8.30;3.33;;;;;;;;;;4385082;32;20243;-55
2021/06/27 05:21:47;;;;;;;5.12;2.70;;;;;;;;;;4386051;32;20504;-56
2021/06/27 05:24:13;;;;;;;6.50;3.08;;;;;;;;;;4385822;32;20222;-54
2021/06/27 05:26:38;;;;;;;9.18;3.33;;;;;;;;;;4386172;32;20344;-55
2021/06/27 05:29:04;;;;;;;8.75;3.45;;;;;;;;;;4374216;32;20771;-56
2021/06/27 05:31:32;;;;;;;7.22;2.85;;;;;;;;;;4389034;32;20292;-55
2021/06/27 05:33:58;;;;;;;9.25;3.00;;;;;;;;;;4390856;32;20297;-56
2021/06/27 05:36:24;;;;;;;12.23;3.30;;;;;;;;;;4390855;32;20321;-56
2021/06/27 05:38:49;;;;;;;6.50;3.12;;;;;;;;;;4390729;32;20225;-56
2021/06/27 05:41:15;;;;;;;5.97;2.97;;;;;;;;;;4390989;32;20269;-57
2021/06/27 05:43:40;;;;;;;5.05;2.40;;;;;;;;;;4391015;32;20218;-55
2021/06/27 05:46:06;;;;;;;6.50;2.78;;;;;;;;;;4390735;32;20319;-53
2021/06/27 05:48:31;;;;;;;8.25;2.75;;;;;;;;;;4390426;32;20263;-54
2021/06/27 05:50:57;;;;;;;6.22;2.92;;;;;;;;;;4390795;32;20397;-56
2021/06/27 05:53:22;;;;;;;7.50;2.70;;;;;;;;;;4390646;32;20205;-54
2021/06/27 05:55:48;;;;;;;10.15;3.92;;;;;;;;;;4390702;32;20302;-54
2021/06/27 05:58:13;;;;;;;10.73;3.35;;;;;;;;;;4390668;32;20312;-54
2021/06/27 06:00:39;;;;;;;14.25;3.80;;;;;;;;;;4390722;32;20317;-54
2021/06/27 06:03:04;;;;;;;9.07;3.28;;;;;;;;;;4389834;32;20684;-55
2021/06/27 06:05:30;;;;;;;6.87;3.35;;;;;;;;;;4389868;32;20309;-56
2021/06/27 06:07:55;;;;;;;17.83;4.78;;;;;;;;;;4390469;32;20297;-54
2021/06/27 06:10:21;;;;;;;10.77;3.45;;;;;;;;;;4390135;32;20273;-55
2021/06/27 06:12:46;;;;;;;10.88;4.50;;;;;;;;;;4390480;32;20218;-55
2021/06/27 06:15:13;;;;;;;8.65;4.25;;;;;;;;;;4390210;32;20281;-55
2021/06/27 06:17:38;;;;;;;7.87;4.35;;;;;;;;;;4390082;32;20250;-56
2021/06/27 06:20:05;;;;;;;10.48;4.72;;;;;;;;;;4389736;32;20324;-56
2021/06/27 06:22:30;;;;;;;5.85;4.10;;;;;;;;;;4389707;32;20704;-56
2021/06/27 06:24:57;;;;;;;15.77;5.35;;;;;;;;;;4376015;32;20268;-55
2021/06/27 06:27:23;;;;;;;15.35;4.87;;;;;;;;;;4389329;32;20218;-54
2021/06/27 06:29:49;;;;;;;10.57;4.50;;;;;;;;;;4374621;32;20339;-54
2021/06/27 06:32:15;;;;;;;10.10;4.47;;;;;;;;;;4385880;32;20343;-54
2021/06/27 06:34:41;;;;;;;9.63;4.43;;;;;;;;;;4386696;32;20677;-55
2021/06/27 06:37:07;;;;;;;10.38;3.95;;;;;;;;;;4385508;32;20251;-54
2021/06/27 06:39:33;;;;;;;11.27;5.20;;;;;;;;;;4383189;32;20226;-55
2021/06/27 06:41:58;;;;;;;9.43;4.55;;;;;;;;;;4384263;32;20214;-55
2021/06/27 06:44:24;;;;;;;11.38;4.72;;;;;;;;;;4383391;32;20228;-54
2021/06/27 06:46:49;;;;;;;10.10;5.30;;;;;;;;;;4382727;32;20252;-56
2021/06/27 06:49:16;;;;;;;13.40;4.95;;;;;;;;;;4384053;32;20241;-56
2021/06/27 06:51:41;;;;;;;12.75;4.85;;;;;;;;;;4384083;32;20619;-55
2021/06/27 06:54:07;;;;;;;9.23;4.37;;;;;;;;;;4387074;32;20377;-56
2021/06/27 06:56:32;;;;;;;7.62;4.22;;;;;;;;;;4392634;32;20261;-56
2021/06/27 06:58:58;;;;;;;11.85;4.78;;;;;;;;;;4403203;32;20705;-57
2021/06/27 07:01:23;;;;;;;13.73;4.87;;;;;;;;;;4406262;32;20268;-56
2021/06/27 07:03:49;;;;;;;10.25;5.07;;;;;;;;;;4391237;32;20217;-56
2021/06/27 07:06:14;;;;;;;7.55;4.53;;;;;;;;;;4390650;32;20265;-54
2021/06/27 07:08:40;;;;;;;12.02;5.07;;;;;;;;;;4382314;32;20214;-56
2021/06/27 07:11:06;;;;;;;17.50;4.78;;;;;;;;;;4401802;32;20202;-55
2021/06/27 07:13:32;;;;;;;10.90;4.93;;;;;;;;;;4398694;32;20292;-55
2021/06/27 07:15:57;;;;;;;10.70;4.72;;;;;;;;;;4390659;32;20315;-55
2021/06/27 07:18:23;;;;;;;9.23;4.80;;;;;;;;;;4389270;32;20287;-54
2021/06/27 07:20:49;;;;;;;9.10;4.37;;;;;;;;;;4388612;32;20629;-54
2021/06/27 07:23:14;;;;;;;10.85;4.70;;;;;;;;;;4389957;32;20243;-55
2021/06/27 07:25:40;;;;;;;15.05;4.85;;;;;;;;;;4390808;32;20289;-56
2021/06/27 07:28:05;;;;;;;7.62;3.95;;;;;;;;;;4376931;32;20237;-54
2021/06/27 07:30:31;;;;;;;10.30;4.60;;;;;;;;;;4392093;32;20307;-55
2021/06/27 07:32:56;;;;;;;9.25;5.10;;;;;;;;;;4390401;32;20373;-55
2021/06/27 07:35:23;;;;;;;13.90;4.95;;;;;;;;;;4389414;32;20232;-56
2021/06/27 07:37:48;;;;;;;7.30;3.40;;;;;;;;;;4389444;32;20297;-56
2021/06/27 07:40:14;;;;;;;11.80;4.40;;;;;;;;;;4389794;32;20732;-56
2021/06/27 07:42:40;;;;;;;13.80;4.28;;;;;;;;;;4387678;32;20251;-55
2021/06/27 07:45:06;;;;;;;16.92;4.30;;;;;;;;;;4390725;32;20265;-56
2021/06/27 07:47:32;;;;;;;10.05;4.22;;;;;;;;;;4376866;32;20221;-55
2021/06/27 07:49:57;;;;;;;9.55;4.18;;;;;;;;;;4390432;32;20692;-56
2021/06/27 07:52:23;;;;;;;13.52;4.30;;;;;;;;;;4390640;32;20225;-56
2021/06/27 07:54:48;;;;;;;7.85;4.12;;;;;;;;;;4376002;32;20210;-56
2021/06/27 07:57:14;;;;;;;12.88;4.00;;;;;;;;;;4373662;32;20226;-56
2021/06/27 07:59:39;;;;;;;7.75;3.25;;;;;;;;;;4373476;32;20323;-57
2021/06/27 08:02:05;;;;;;;19.35;4.90;;;;;;;;;;4381906;32;20221;-55
2021/06/27 08:04:30;;;;;;;7.70;4.25;;;;;;;;;;4388428;32;20263;-56
2021/06/27 08:06:56;;;;;;;10.80;3.85;;;;;;;;;;4388787;32;20268;-56
2021/06/27 08:09:22;;;;;;;11.80;3.58;;;;;;;;;;4389265;32;20554;-57
2021/06/27 08:11:47;;;;;;;11.20;4.20;;;;;;;;;;4386597;32;20209;-57
2021/06/27 08:14:13;;;;;;;5.18;2.80;;;;;;;;;;4375205;32;20210;-57
2021/06/27 08:16:38;;;;;;;8.48;3.28;;;;;;;;;;4375248;32;20781;-58
2021/06/27 08:19:06;;;;;;;9.85;4.00;;;;;;;;;;4375291;32;20493;-56
2021/06/27 08:21:32;;;;;;;10.30;3.40;;;;;;;;;;4375422;32;20520;-55
2021/06/27 08:23:58;;;;;;;7.60;4.22;;;;;;;;;;4374895;32;20647;-54
2021/06/27 08:26:24;;;;;;;5.43;3.35;;;;;;;;;;4375205;32;20267;-56
2021/06/27 08:28:53;;;;;;;12.50;4.22;;;;;;;;;;4374796;32;20238;-55
2021/06/27 08:31:22;;;;;;;7.68;3.90;;;;;;;;;;4386174;32;20357;-55
2021/06/27 08:33:50;;;;;;;7.00;2.62;;;;;;;;;;4374874;32;20321;-57
2021/06/27 08:36:15;;;;;;;9.23;3.72;;;;;;;;;;4375072;32;20703;-58
2021/06/27 08:38:41;;;;;;;10.05;3.50;;;;;;;;;;4374943;32;20260;-56
2021/06/27 08:41:06;;;;;;;7.50;3.95;;;;;;;;;;4381897;32;20646;-56
2021/06/27 08:43:33;;;;;;;8.60;4.32;;;;;;;;;;4389856;32;20213;-56
2021/06/27 08:46:05;;;;;;;4.28;2.37;;;;;;;;;;4390176;32;20202;-57
2021/06/27 08:48:35;;;;;;;10.65;3.78;;;;;;;;;;4389906;32;20205;-58
2021/06/27 08:51:01;;;;;;;8.40;3.75;;;;;;;;;;4389824;32;20213;-57
2021/06/27 08:53:27;;;;;;;7.28;3.47;;;;;;;;;;4389745;32;20238;-56
2021/06/27 08:56:05;;;;;;;21.42;4.22;;;;;;;;;;4389798;32;20291;-57
2021/06/27 08:58:45;;;;;;;8.57;3.50;;;;;;;;;;4388889;32;20620;-56
2021/06/27 09:01:16;;;;;;;17.20;4.53;;;;;;;;;;4390545;32;20278;-57
2021/06/27 09:03:44;;;;;;;8.45;3.40;;;;;;;;;;4404863;32;20252;-56
2021/06/27 09:06:09;;;;;;;13.68;2.97;;;;;;;;;;4404018;32;20240;-57
2021/06/27 09:08:35;;;;;;;6.55;2.97;;;;;;;;;;4384668;32;20202;-55
2021/06/27 09:11:14;;;;;;;9.57;2.95;;;;;;;;;;4374649;32;20291;-55
2021/06/27 09:13:43;;;;;;;8.20;2.97;;;;;;;;;;4374057;32;20716;-55
2021/06/27 09:16:21;;;;;;;7.30;3.10;;;;;;;;;;4360926;32;20297;-56
2021/06/27 09:18:47;;;;;;;3.67;2.20;;;;;;;;;;4374290;32;20235;-57
2021/06/27 09:21:13;;;;;;;11.88;3.22;;;;;;;;;;4374926;32;20370;-56
2021/06/27 09:23:44;;;;;;;8.40;3.20;;;;;;;;;;4374283;32;20722;-56
2021/06/27 09:26:10;;;;;;;4.25;2.30;;;;;;;;;;4377417;32;20290;-56
2021/06/27 09:28:43;;;;;;;9.55;3.30;;;;;;;;;;4374395;32;20280;-57
2021/06/27 09:31:08;;;;;;;4.65;2.22;;;;;;;;;;4385096;32;20280;-56
2021/06/27 09:33:35;;;;;;;8.80;2.45;;;;;;;;;;4389103;32;20242;-55
2021/06/27 09:36:09;;;;;;;10.25;2.60;;;;;;;;;;4389972;32;20265;-57
2021/06/27 09:38:48;;;;;;;18.17;3.97;;;;;;;;;;4389372;32;20259;-55
2021/06/27 09:41:32;;;;;;;4.85;2.62;;;;;;;;;;4389722;32;20577;-55
2021/06/27 09:44:11;;;;;;;6.35;2.22;;;;;;;;;;4375011;32;20664;-57
2021/06/27 09:46:43;;;;;;;6.62;2.80;;;;;;;;;;4388962;32;20194;-56
2021/06/27 09:49:09;;;;;;;4.20;2.45;;;;;;;;;;4389039;32;20355;-57
2021/06/27 09:51:37;;;;;;;9.35;2.83;;;;;;;;;;4389299;32;20241;-58
2021/06/27 09:54:11;;;;;;;13.62;3.20;;;;;;;;;;4389049;32;20618;-56
2021/06/27 09:56:40;;;;;;;6.32;2.67;;;;;;;;;;4388554;32;20214;-57
2021/06/27 09:59:09;;;;;;;5.82;2.80;;;;;;;;;;4389316;32;20209;-57
2021/06/27 10:01:36;;;;;;;8.70;2.72;;;;;;;;;;4392888;32;20286;-56
2021/06/27 10:04:04;;;;;;;6.15;2.58;;;;;;;;;;4404369;32;20244;-56
2021/06/27 10:06:51;;;;;;;5.62;2.58;;;;;;;;;;4384344;32;20602;-57
2021/06/27 10:09:22;;;;;;;7.97;2.92;;;;;;;;;;4384196;32;20234;-57
2021/06/27 10:11:58;;;;;;;8.15;3.72;;;;;;;;;;4389050;32;20213;-57
2021/06/27 10:14:27;;;;;;;5.43;2.28;;;;;;;;;;4389074;32;20276;-55
2021/06/27 10:16:55;;;;;;;9.43;2.70;;;;;;;;;;4389327;32;20246;-56
2021/06/27 10:19:21;;;;;;;12.20;2.75;;;;;;;;;;4391735;32;20229;-57
2021/06/27 10:21:46;;;;;;;13.13;3.42;;;;;;;;;;4392117;32;20290;-57
2021/06/27 10:24:12;;;;;;;4.82;2.87;;;;;;;;;;4377708;32;20737;-56
2021/06/27 10:26:39;;;;;;;9.73;2.95;;;;;;;;;;4391658;32;20774;-57
2021/06/27 10:29:05;;;;;;;7.93;2.90;;;;;;;;;;4391567;32;20259;-57
2021/06/27 10:31:31;;;;;;;6.40;2.80;;;;;;;;;;4394494;32;20293;-56
2021/06/27 10:33:56;;;;;;;9.77;3.17;;;;;;;;;;4391530;32;20785;-57
2021/06/27 10:36:33;;;;;;;4.93;2.45;;;;;;;;;;4390943;32;20248;-58
2021/06/27 10:39:01;;;;;;;7.80;2.83;;;;;;;;;;4391601;32;20318;-57
2021/06/27 10:41:59;;;;;;;9.10;3.17;;;;;;;;;;4391670;32;20251;-58
2021/06/27 10:44:27;;;;;;;12.00;3.35;;;;;;;;;;4391082;32;20218;-57
2021/06/27 10:46:55;;;;;;;7.10;2.58;;;;;;;;;;4376494;32;20301;-57
2021/06/27 10:49:33;;;;;;;5.90;2.72;;;;;;;;;;4376651;32;20252;-57
2021/06/27 10:52:06;;;;;;;5.90;2.97;;;;;;;;;;4376265;32;20296;-57
2021/06/27 10:54:31;;;;;;;7.87;2.80;;;;;;;;;;4375691;32;20226;-57
2021/06/27 10:57:05;;;;;;;13.95;2.75;;;;;;;;;;4376304;32;20689;-57
2021/06/27 10:59:39;;;;;;;8.55;3.55;;;;;;;;;;4376464;32;20276;-57
2021/06/27 11:02:13;;;;;;;10.43;2.72;;;;;;;;;;4388594;32;20254;-57
2021/06/27 11:04:39;;;;;;;4.07;2.67;;;;;;;;;;4383310;32;20392;-56
2021/06/27 11:07:04;;;;;;;4.75;2.75;;;;;;;;;;4375975;32;20242;-56
2021/06/27 11:09:31;;;;;;;6.75;3.03;;;;;;;;;;4375776;32;20214;-56
2021/06/27 11:11:57;;;;;;;7.70;2.60;;;;;;;;;;4377360;32;20328;-57
2021/06/27 11:14:24;;;;;;;6.57;2.80;;;;;;;;;;4390827;32;20707;-56
2021/06/27 11:17:06;;;;;;;7.72;2.67;;;;;;;;;;4391282;32;20591;-57
2021/06/27 11:19:40;;;;;;;7.68;2.80;;;;;;;;;;4390682;32;20594;-57
2021/06/27 11:22:21;;;;;;;6.32;2.72;;;;;;;;;;4390241;32;20324;-57
2021/06/27 11:24:49;;;;;;;5.57;2.97;;;;;;;;;;4383909;32;20210;-57
2021/06/27 11:27:34;;;;;;;8.75;2.80;;;;;;;;;;4396188;32;20214;-58
2021/06/27 11:30:00;;;;;;;8.90;3.80;;;;;;;;;;4380086;32;20578;-58
2021/06/27 11:32:25;;;;;;;8.60;3.78;;;;;;;;;;4389943;32;20247;-57
2021/06/27 11:34:55;;;;;;;8.32;2.85;;;;;;;;;;4383445;32;20242;-58
2021/06/27 11:37:24;;;;;;;5.80;2.92;;;;;;;;;;4387875;32;20279;-57
2021/06/27 11:40:02;;;;;;;4.32;2.83;;;;;;;;;;4390020;32;20605;-58
2021/06/27 11:42:28;;;;;;;6.50;3.05;;;;;;;;;;4389376;32;20453;-57
2021/06/27 11:45:06;;;;;;;15.07;2.83;;;;;;;;;;4388872;32;20292;-58
2021/06/27 11:47:39;;;;;;;10.88;2.95;;;;;;;;;;4383385;32;20229;-58
2021/06/27 11:50:18;;;;;;;6.47;2.60;;;;;;;;;;4384865;32;20210;-58
2021/06/27 11:52:49;;;;;;;6.22;2.83;;;;;;;;;;4389823;32;20739;-57
2021/06/27 11:55:15;;;;;;;4.03;2.87;;;;;;;;;;4386843;32;20198;-58
2021/06/27 11:57:41;;;;;;;7.65;2.97;;;;;;;;;;4388068;32;20268;-57
2021/06/27 12:00:09;;;;;;;5.37;2.47;;;;;;;;;;4387273;32;20225;-57
2021/06/27 12:02:38;;;;;;;8.02;2.65;;;;;;;;;;4385484;32;20225;-57
2021/06/27 12:05:14;;;;;;;4.65;2.67;;;;;;;;;;4380879;32;20272;-58
2021/06/27 12:07:42;;;;;;;5.50;3.33;;;;;;;;;;4388533;32;20492;-57
2021/06/27 12:10:19;;;;;;;7.32;2.90;;;;;;;;;;4389056;32;20210;-58
2021/06/27 12:13:01;;;;;;;8.07;3.67;;;;;;;;;;4389383;32;20225;-57
2021/06/27 12:15:32;;;;;;;5.45;3.40;;;;;;;;;;4385416;32;20343;-58
2021/06/27 12:18:00;;;;;;;5.05;3.03;;;;;;;;;;4380785;32;20218;-58
2021/06/27 12:20:28;;;;;;;4.45;3.12;;;;;;;;;;4374502;32;20267;-57
2021/06/27 12:23:04;;;;;;;4.93;3.03;;;;;;;;;;4379362;32;20301;-57
2021/06/27 12:25:39;;;;;;;4.47;2.67;;;;;;;;;;4383246;32;20610;-58
2021/06/27 12:28:16;;;;;;;6.35;2.85;;;;;;;;;;4378835;32;20646;-58
2021/06/27 12:30:51;;;;;;;5.28;4.45;;;;;;;;;;4387029;32;20217;-59
2021/06/27 12:33:19;;;;;;;4.78;2.60;;;;;;;;;;4388210;32;20312;-59
2021/06/27 12:35:46;;;;;;;5.85;2.83;;;;;;;;;;4387812;32;20535;-58
2021/06/27 12:38:13;;;;;;;6.60;3.25;;;;;;;;;;4387792;32;20627;-57
2021/06/27 12:40:43;;;;;;;6.03;2.90;;;;;;;;;;4387428;32;20346;-58
2021/06/27 12:43:23;;;;;;;3.72;2.75;;;;;;;;;;4372760;32;20303;-58
2021/06/27 12:46:15;;;;;;;4.72;3.12;;;;;;;;;;4387549;32;20311;-56
2021/06/27 12:48:48;;;;;;;6.47;2.60;;;;;;;;;;4387003;32;20297;-56
2021/06/27 12:51:30;;;;;;;7.80;3.17;;;;;;;;;;4387763;32;20278;-55
2021/06/27 12:53:59;;;;;;;9.40;2.70;;;;;;;;;;4386375;32;20614;-55
2021/06/27 12:56:38;;;;;;;4.30;3.05;;;;;;;;;;4386103;32;20201;-57
2021/06/27 12:59:06;;;;;;;9.85;2.72;;;;;;;;;;4386902;32;20234;-58
2021/06/27 13:02:11;;;;;;;5.15;2.95;;;;;;;;;;4387513;32;20285;-57
2021/06/27 13:04:38;;;;;;;7.07;3.08;;;;;;;;;;4382850;32;20662;-56
2021/06/27 13:07:13;;;;;;;13.13;2.60;;;;;;;;;;4371093;32;20340;-57
2021/06/27 13:10:00;;;;;;;7.35;2.72;;;;;;;;;;4388284;32;20308;-57
2021/06/27 13:12:25;;;;;;;6.05;3.45;;;;;;;;;;4386866;32;20292;-56
2021/06/27 13:15:12;;;;;;;9.00;3.42;;;;;;;;;;4386945;32;20385;-58
2021/06/27 13:17:52;;;;;;;6.45;3.30;;;;;;;;;;4386405;32;20730;-57
2021/06/27 13:20:40;;;;;;;4.90;2.90;;;;;;;;;;4387587;32;20206;-56
2021/06/27 13:23:17;;;;;;;5.72;3.70;;;;;;;;;;4387443;32;20217;-56
2021/06/27 13:25:47;;;;;;;7.55;4.05;;;;;;;;;;4387201;32;20228;-56
2021/06/27 13:28:24;;;;;;;13.95;3.85;;;;;;;;;;4387587;32;20213;-56
2021/06/27 13:30:55;;;;;;;4.40;2.90;;;;;;;;;;4387048;32;20206;-55
2021/06/27 13:33:24;;;;;;;5.18;3.42;;;;;;;;;;4387536;32;20828;-55
2021/06/27 13:36:08;;;;;;;4.40;3.22;;;;;;;;;;4387730;32;20279;-55
2021/06/27 13:38:47;;;;;;;5.43;2.83;;;;;;;;;;4386158;32;20202;-56
2021/06/27 13:41:18;;;;;;;6.07;3.15;;;;;;;;;;4385601;32;20210;-56
2021/06/27 13:43:44;;;;;;;7.12;3.67;;;;;;;;;;4387565;32;20263;-56
2021/06/27 13:46:09;;;;;;;7.15;3.00;;;;;;;;;;4373439;32;20281;-56
2021/06/27 13:48:35;;;;;;;5.80;3.50;;;;;;;;;;4387642;32;20312;-56
2021/06/27 13:51:01;;;;;;;4.82;2.75;;;;;;;;;;4387413;32;20281;-56
2021/06/27 13:53:27;;;;;;;5.57;2.87;;;;;;;;;;4389722;32;20603;-56
2021/06/27 13:56:13;;;;;;;5.65;2.90;;;;;;;;;;4390259;32;20232;-57
2021/06/27 13:58:38;;;;;;;7.90;2.80;;;;;;;;;;4390055;32;20392;-57
2021/06/27 14:01:04;;;;;;;13.27;2.67;;;;;;;;;;4387595;32;20271;-56
2021/06/27 14:03:30;;;;;;;5.87;2.87;;;;;;;;;;4389617;32;20286;-58
2021/06/27 14:05:55;;;;;;;2.95;1.95;;;;;;;;;;4389837;32;20331;-57
2021/06/27 14:08:21;;;;;;;4.82;2.90;;;;;;;;;;4389534;32;20703;-56
2021/06/27 14:10:46;;;;;;;5.00;3.00;;;;;;;;;;4375268;32;20293;-56
2021/06/27 14:13:12;;;;;;;5.43;3.42;;;;;;;;;;4375834;32;20249;-57
2021/06/27 14:15:37;;;;;;;7.70;3.15;;;;;;;;;;4388923;32;20197;-57
2021/06/27 14:18:03;;;;;;;9.82;3.95;;;;;;;;;;4390111;32;20287;-55
2021/06/27 14:20:29;;;;;;;5.62;2.83;;;;;;;;;;4389824;32;20293;-57
2021/06/27 14:22:55;;;;;;;5.45;3.00;;;;;;;;;;4388941;32;20320;-56
2021/06/27 14:25:21;;;;;;;5.40;3.10;;;;;;;;;;4388685;32;20288;-56
2021/06/27 14:27:47;;;;;;;2.85;2.17;;;;;;;;;;4389929;32;20300;-55
2021/06/27 14:30:14;;;;;;;7.72;3.00;;;;;;;;;;4388983;32;20194;-56
2021/06/27 14:32:40;;;;;;;4.15;3.00;;;;;;;;;;4389638;32;20626;-56
2021/06/27 14:35:10;;;;;;;2.75;2.53;;;;;;;;;;4388771;32;20220;-55
2021/06/27 14:37:39;;;;;;;7.32;2.72;;;;;;;;;;4388776;32;20717;-55
2021/06/27 14:40:06;;;;;;;7.30;4.07;;;;;;;;;;4388467;32;20777;-55
2021/06/27 14:42:31;;;;;;;6.10;3.50;;;;;;;;;;4392985;32;20230;-55
2021/06/27 14:44:57;;;;;;;9.27;3.40;;;;;;;;;;4401332;32;20294;-55